Valley City, Ohio
Current Conditions -  °F | °C
As of 7:51 AM on Wednesday 26 Nov 2014 (Local Time) from KCLE Reporting Station
Overcast Overcast  
Wind Chill: 26°   Ceiling: 2500
Heat Index: 33°   Visibility: 10mi
Dew Point: 24°   Wind: 8mph
Humidity: 70%   Direction: 90°E
Pressure: 30.17"   Gusts: NA
Location:  41.24°N, 81.93°W
Report Text: KCLE 261251Z 09007KT 10SM OVC025 01/M04 A3017 RMK AO2 SLP223 T00061044
Loading
Personal Weather Stations






























Interactive Weather Map New forecast layout! Learn more

10-Day Weather Forecast

Advertisements
Track Severe Weather on mobile